Time;durP1;ratioP1;P1;durP2;ratioP2;P2;SDS_P1;SDS_P2;PMS_P1;PMS_P2;Temp;Humidity;BMP_temperature;BMP_pressure;BME280_temperature;BME280_humidity;BME280_pressure;Samples;Min_cycle;Max_cycle;Signal;HPM_P1;HPM_P2
2022/07/02 00:01:36;;;;;;;10.30;9.20;;;18.70;99.90;;;;;;5073197;28;20409;-75
2022/07/02 00:04:04;;;;;;;12.40;10.90;;;18.70;99.90;;;;;;5073134;28;20021;-73
2022/07/02 00:06:35;;;;;;;10.10;9.10;;;18.70;99.90;;;;;;5072974;28;20057;-73
2022/07/02 00:09:02;;;;;;;11.40;10.23;;;18.80;99.90;;;;;;5055397;28;20414;-75
2022/07/02 00:11:28;;;;;;;10.38;9.38;;;18.80;99.90;;;;;;5035164;28;20029;-76
2022/07/02 00:13:54;;;;;;;12.70;11.20;;;18.80;99.90;;;;;;5053016;28;20013;-75
2022/07/02 00:16:20;;;;;;;12.07;10.88;;;18.80;99.90;;;;;;5053245;28;20163;-76
2022/07/02 00:18:46;;;;;;;12.32;11.07;;;18.80;99.90;;;;;;5052957;28;20013;-75
2022/07/02 00:21:13;;;;;;;12.68;11.25;;;18.70;99.90;;;;;;5053119;28;20419;-73
2022/07/02 00:23:38;;;;;;;12.82;11.57;;;18.60;99.90;;;;;;5052909;28;20528;-75
2022/07/02 00:26:14;;;;;;;16.17;13.00;;;18.50;99.90;;;;;;5052825;28;20029;-75
2022/07/02 00:28:42;;;;;;;13.48;11.88;;;18.50;99.90;;;;;;5052831;28;20028;-75
2022/07/02 00:31:08;;;;;;;12.63;11.32;;;18.60;99.90;;;;;;5052828;28;20041;-73
2022/07/02 00:33:37;;;;;;;14.80;12.63;;;18.50;99.90;;;;;;5052769;28;20509;-76
2022/07/02 00:36:03;;;;;;;13.65;11.93;;;18.60;99.90;;;;;;5052700;28;20029;-76
2022/07/02 00:38:29;;;;;;;14.93;12.10;;;18.70;99.90;;;;;;5052721;28;20025;-75
2022/07/02 00:40:57;;;;;;;13.98;12.60;;;18.70;99.90;;;;;;5052615;28;20099;-76
2022/07/02 00:43:23;;;;;;;15.93;12.13;;;18.70;99.90;;;;;;5034767;28;20028;-76
2022/07/02 00:45:51;;;;;;;15.07;12.27;;;18.70;99.90;;;;;;5058069;28;20125;-74
2022/07/02 00:48:16;;;;;;;13.75;12.38;;;18.70;99.90;;;;;;5054688;28;20478;-74
2022/07/02 00:50:42;;;;;;;19.33;13.10;;;18.70;99.90;;;;;;5072751;28;20034;-75
2022/07/02 00:53:08;;;;;;;14.93;13.18;;;18.70;99.90;;;;;;5054787;28;20025;-76
2022/07/02 00:55:33;;;;;;;17.15;12.68;;;18.70;99.90;;;;;;5072550;28;20024;-73
2022/07/02 00:57:59;;;;;;;15.02;12.50;;;18.70;99.90;;;;;;5072579;28;20025;-74
2022/07/02 01:00:26;;;;;;;17.10;13.90;;;18.80;99.90;;;;;;5054444;28;20128;-76
2022/07/02 01:02:55;;;;;;;15.90;14.23;;;18.70;99.90;;;;;;5054535;28;20029;-74
2022/07/02 01:05:22;;;;;;;14.13;12.45;;;18.70;99.90;;;;;;5054231;28;20070;-76
2022/07/02 01:10:52;;;;;;;15.05;13.55;;;18.70;99.90;;;;;;5039513;28;20082;-76
2022/07/02 01:13:18;;;;;;;19.83;14.82;;;18.60;99.90;;;;;;5056245;28;20024;-75
2022/07/02 01:15:44;;;;;;;17.35;14.02;;;18.50;99.90;;;;;;5056209;28;20025;-75
2022/07/02 01:18:17;;;;;;;17.02;13.77;;;18.50;99.90;;;;;;5038194;28;20386;-76
2022/07/02 01:20:43;;;;;;;16.80;13.80;;;18.50;99.90;;;;;;5037775;28;20045;-76
2022/07/02 01:23:09;;;;;;;16.60;14.52;;;18.40;99.90;;;;;;5038126;28;20017;-74
2022/07/02 01:25:35;;;;;;;20.63;14.48;;;18.30;99.90;;;;;;5056165;28;20355;-75
2022/07/02 01:28:00;;;;;;;17.25;14.63;;;18.20;99.90;;;;;;5055910;28;20479;-76
2022/07/02 01:30:26;;;;;;;16.60;14.02;;;18.10;99.90;;;;;;5055918;28;20104;-73
2022/07/02 01:32:52;;;;;;;22.30;13.88;;;17.90;99.90;;;;;;5055770;28;20032;-74
2022/07/02 01:35:18;;;;;;;18.75;13.73;;;17.90;99.90;;;;;;5037770;28;20036;-74
2022/07/02 01:37:43;;;;;;;16.00;14.18;;;17.80;99.90;;;;;;5055986;28;20030;-75
2022/07/02 01:40:10;;;;;;;16.30;13.25;;;17.90;99.90;;;;;;5055605;28;20033;-73
2022/07/02 01:42:36;;;;;;;17.17;14.00;;;17.80;99.90;;;;;;5055630;28;20021;-74
2022/07/02 01:45:02;;;;;;;18.95;15.80;;;17.80;99.90;;;;;;5055473;28;20029;-73
2022/07/02 01:47:28;;;;;;;16.67;13.95;;;17.70;99.90;;;;;;5074965;28;20028;-74
2022/07/02 01:49:54;;;;;;;17.35;15.45;;;17.60;99.90;;;;;;5057506;28;20078;-75
2022/07/02 01:52:19;;;;;;;17.17;15.35;;;17.60;99.90;;;;;;5075817;28;20016;-75
2022/07/02 01:54:45;;;;;;;16.95;15.13;;;17.50;99.90;;;;;;5075204;28;20052;-74
2022/07/02 01:57:12;;;;;;;17.48;15.20;;;17.60;99.90;;;;;;5057587;28;20021;-73
2022/07/02 01:59:38;;;;;;;20.17;16.35;;;17.50;99.90;;;;;;5057255;28;20327;-74
2022/07/02 02:02:05;;;;;;;21.58;19.02;;;17.40;99.90;;;;;;5075345;28;20085;-74
2022/07/02 02:04:31;;;;;;;22.30;19.10;;;17.30;99.90;;;;;;5075221;28;20028;-73
2022/07/02 02:06:57;;;;;;;22.38;19.63;;;17.30;99.90;;;;;;5055911;28;20044;-74
2022/07/02 02:09:22;;;;;;;28.17;21.33;;;17.20;99.90;;;;;;5037321;28;20028;-73
2022/07/02 02:11:48;;;;;;;22.95;20.45;;;17.20;99.90;;;;;;5055151;28;20522;-74
2022/07/02 02:14:14;;;;;;;27.83;22.25;;;17.20;99.90;;;;;;5055056;28;20021;-75
2022/07/02 02:16:40;;;;;;;27.13;21.35;;;17.20;99.90;;;;;;5054876;28;20025;-75
2022/07/02 02:19:06;;;;;;;27.77;23.52;;;17.00;99.90;;;;;;5055009;28;20024;-76
2022/07/02 02:21:32;;;;;;;29.33;22.88;;;17.00;99.90;;;;;;5054995;28;20037;-75
2022/07/02 02:23:58;;;;;;;30.23;23.95;;;17.00;99.90;;;;;;5054775;28;20590;-75
2022/07/02 02:26:25;;;;;;;27.02;22.65;;;16.80;99.90;;;;;;5054757;28;20129;-74
2022/07/02 02:28:51;;;;;;;30.88;22.42;;;16.70;99.90;;;;;;5054688;28;20043;-75
2022/07/02 02:31:17;;;;;;;30.20;22.85;;;16.70;99.90;;;;;;5054730;28;20024;-75
2022/07/02 02:33:42;;;;;;;24.63;20.38;;;16.80;99.90;;;;;;5054885;28;20044;-76
2022/07/02 02:36:08;;;;;;;33.17;20.73;;;16.80;99.90;;;;;;5054560;28;20028;-74
2022/07/02 02:38:37;;;;;;;24.30;17.77;;;16.70;99.90;;;;;;5036738;28;20024;-75
2022/07/02 02:41:07;;;;;;;24.83;19.15;;;16.60;99.90;;;;;;5054474;28;20067;-76
2022/07/02 02:43:36;;;;;;;24.83;19.77;;;16.60;99.90;;;;;;5054722;28;20112;-73
2022/07/02 02:46:03;;;;;;;23.52;18.67;;;16.50;99.90;;;;;;5044249;28;20028;-75
2022/07/02 02:48:29;;;;;;;18.77;16.48;;;16.50;99.90;;;;;;5056403;28;20039;-74
2022/07/02 02:50:58;;;;;;;22.45;17.77;;;16.40;99.90;;;;;;5056238;28;20479;-73
2022/07/02 02:53:24;;;;;;;22.45;16.73;;;16.30;99.90;;;;;;5056532;28;20497;-75
2022/07/02 02:55:50;;;;;;;21.90;17.90;;;16.30;99.90;;;;;;5074164;28;20029;-75
2022/07/02 02:58:15;;;;;;;26.70;17.23;;;16.20;99.90;;;;;;5074327;28;20016;-75
2022/07/02 03:00:41;;;;;;;20.42;17.02;;;16.20;99.90;;;;;;5073994;28;20036;-73
2022/07/02 03:03:07;;;;;;;22.52;15.82;;;16.20;99.90;;;;;;5074182;28;20025;-74
2022/07/02 03:05:33;;;;;;;22.17;16.70;;;16.10;99.90;;;;;;5073713;28;20058;-75
2022/07/02 03:07:58;;;;;;;20.90;16.60;;;16.20;99.90;;;;;;5046145;28;20052;-75
2022/07/02 03:10:24;;;;;;;19.55;15.70;;;16.10;99.90;;;;;;5053928;28;20032;-74
2022/07/02 03:12:50;;;;;;;21.00;15.95;;;16.10;99.90;;;;;;5054051;28;20039;-74
2022/07/02 03:15:15;;;;;;;23.92;16.48;;;16.10;99.90;;;;;;5053782;28;20029;-73
2022/07/02 03:17:41;;;;;;;19.73;16.05;;;16.10;99.90;;;;;;5036107;28;20482;-74
2022/07/02 03:20:08;;;;;;;20.40;15.48;;;16.10;99.90;;;;;;5053646;28;20064;-73
2022/07/02 03:22:34;;;;;;;17.45;14.65;;;16.10;99.90;;;;;;5053875;28;20051;-74
2022/07/02 03:24:59;;;;;;;19.45;14.35;;;16.10;99.90;;;;;;5035741;28;20486;-75
2022/07/02 03:27:25;;;;;;;21.02;14.35;;;16.10;99.90;;;;;;5053746;28;20363;-75
2022/07/02 03:29:52;;;;;;;17.65;13.93;;;16.10;99.90;;;;;;5035673;28;20025;-75
2022/07/02 03:32:18;;;;;;;20.75;14.23;;;16.10;99.90;;;;;;5053673;28;20031;-75
2022/07/02 03:34:45;;;;;;;23.80;15.10;;;16.10;99.90;;;;;;5052817;28;20025;-75
2022/07/02 03:37:11;;;;;;;16.85;14.55;;;16.00;99.90;;;;;;5053620;28;20017;-73
2022/07/02 03:39:36;;;;;;;18.83;13.90;;;16.00;99.90;;;;;;5035577;28;20120;-73
2022/07/02 03:42:02;;;;;;;19.02;14.82;;;16.00;99.90;;;;;;5053413;28;20051;-73
2022/07/02 03:44:28;;;;;;;17.50;15.55;;;16.00;99.90;;;;;;5053420;28;20025;-73
2022/07/02 03:46:54;;;;;;;17.08;15.00;;;15.90;99.90;;;;;;5068415;28;20478;-74
2022/07/02 03:49:19;;;;;;;17.25;14.32;;;16.00;99.90;;;;;;5073403;28;20056;-73
2022/07/02 03:51:45;;;;;;;25.40;16.25;;;16.00;99.90;;;;;;5055417;28;20464;-75
2022/07/02 03:54:11;;;;;;;19.00;15.07;;;16.10;99.90;;;;;;5055375;28;20031;-74
2022/07/02 03:56:36;;;;;;;22.27;14.90;;;16.10;99.90;;;;;;5073038;28;20099;-75
2022/07/02 03:59:02;;;;;;;19.30;15.48;;;16.10;99.90;;;;;;5073379;28;20103;-75
2022/07/02 04:01:28;;;;;;;18.63;16.02;;;16.20;99.90;;;;;;5072995;28;20483;-75
2022/07/02 04:03:53;;;;;;;25.05;17.33;;;16.10;99.90;;;;;;5073151;28;20021;-74
2022/07/02 04:06:19;;;;;;;22.60;16.65;;;16.20;99.90;;;;;;5073003;28;20052;-73
2022/07/02 04:08:45;;;;;;;19.13;15.68;;;16.10;99.90;;;;;;5038297;28;20023;-75
2022/07/02 04:11:10;;;;;;;23.90;17.35;;;16.10;99.90;;;;;;5053080;28;20467;-73
2022/07/02 04:13:36;;;;;;;22.83;15.93;;;16.10;99.90;;;;;;5053103;28;20414;-75
2022/07/02 04:16:02;;;;;;;22.67;16.48;;;16.00;99.90;;;;;;5052980;28;20075;-76
2022/07/02 04:18:28;;;;;;;23.15;16.58;;;16.10;99.90;;;;;;5035175;28;20047;-75
2022/07/02 04:20:53;;;;;;;20.75;15.82;;;16.20;99.90;;;;;;5034804;28;20043;-73
2022/07/02 04:23:19;;;;;;;21.55;15.02;;;16.10;99.90;;;;;;5035195;28;20108;-74
2022/07/02 04:25:45;;;;;;;21.00;15.45;;;16.20;99.90;;;;;;5052791;28;20052;-75
2022/07/02 04:28:12;;;;;;;20.27;14.75;;;16.20;99.90;;;;;;5053000;28;20386;-75
2022/07/02 04:30:38;;;;;;;17.02;13.50;;;16.10;99.90;;;;;;5052810;28;20025;-73
2022/07/02 04:33:03;;;;;;;22.17;13.70;;;16.00;99.90;;;;;;5052790;28;20142;-75
2022/07/02 04:35:30;;;;;;;16.83;13.02;;;16.00;99.90;;;;;;5052776;28;20025;-73
2022/07/02 04:37:56;;;;;;;15.57;12.60;;;16.00;99.90;;;;;;5034803;28;20437;-73
2022/07/02 04:40:21;;;;;;;15.85;12.63;;;16.00;99.90;;;;;;5034859;28;20033;-73
2022/07/02 04:42:47;;;;;;;17.08;11.95;;;16.00;99.90;;;;;;5052633;28;20370;-73
2022/07/02 04:45:13;;;;;;;13.15;11.52;;;16.00;99.90;;;;;;5036450;28;20036;-76
2022/07/02 04:47:38;;;;;;;14.25;11.38;;;16.10;99.90;;;;;;5057471;28;20116;-76
2022/07/02 04:50:05;;;;;;;11.07;9.95;;;16.10;99.90;;;;;;5071523;28;20032;-73
2022/07/02 04:52:30;;;;;;;12.43;10.77;;;16.10;99.90;;;;;;5076659;28;20062;-75
2022/07/02 04:54:56;;;;;;;12.07;10.80;;;16.20;99.90;;;;;;5048229;28;20032;-75
2022/07/02 04:57:21;;;;;;;11.82;10.40;;;16.20;99.90;;;;;;5054172;28;20086;-75
2022/07/02 04:59:47;;;;;;;10.80;9.75;;;16.20;99.90;;;;;;5066500;28;20096;-73
2022/07/02 05:02:13;;;;;;;11.52;10.32;;;16.20;99.90;;;;;;5076075;28;20470;-73
2022/07/02 05:04:39;;;;;;;11.52;10.20;;;16.20;99.90;;;;;;5058171;28;20116;-74
2022/07/02 05:07:05;;;;;;;12.75;10.77;;;16.20;99.90;;;;;;5075850;28;20056;-73
2022/07/02 05:09:30;;;;;;;13.27;11.07;;;16.30;99.90;;;;;;5076086;28;20040;-74
2022/07/02 05:11:56;;;;;;;13.02;10.63;;;16.20;99.90;;;;;;5076125;28;20095;-73
2022/07/02 05:14:22;;;;;;;12.35;10.40;;;16.20;99.90;;;;;;5075438;28;20093;-76
2022/07/02 05:16:48;;;;;;;14.45;10.75;;;16.10;99.90;;;;;;5066501;28;20032;-77
2022/07/02 05:19:13;;;;;;;12.02;10.35;;;16.10;99.90;;;;;;5075908;28;20085;-75
2022/07/02 05:21:41;;;;;;;14.88;10.52;;;16.00;99.90;;;;;;5075878;28;20493;-76
2022/07/02 05:24:07;;;;;;;13.27;10.13;;;16.00;99.90;;;;;;5072033;28;20021;-75
2022/07/02 05:26:33;;;;;;;16.40;12.05;;;16.00;99.90;;;;;;5062055;28;20037;-73
2022/07/02 05:28:58;;;;;;;13.90;11.30;;;16.00;99.90;;;;;;5073694;28;20027;-74
2022/07/02 05:31:24;;;;;;;16.35;11.63;;;16.00;99.90;;;;;;5054911;28;20029;-76
2022/07/02 05:33:50;;;;;;;16.98;12.80;;;16.00;99.90;;;;;;5069072;28;20047;-76
2022/07/02 05:36:16;;;;;;;18.60;13.27;;;16.00;99.90;;;;;;5071566;28;20040;-73
2022/07/02 05:38:41;;;;;;;20.20;13.98;;;15.90;99.90;;;;;;5057439;28;20029;-75
2022/07/02 05:41:08;;;;;;;19.90;13.63;;;15.90;99.90;;;;;;5074153;28;20486;-76
2022/07/02 05:43:34;;;;;;;16.63;12.63;;;16.00;99.90;;;;;;5075425;28;20016;-75
2022/07/02 05:45:59;;;;;;;17.27;12.15;;;16.10;99.90;;;;;;5074866;28;20098;-74
2022/07/02 05:48:25;;;;;;;18.83;13.00;;;16.00;99.90;;;;;;5057297;28;20095;-74
2022/07/02 05:50:51;;;;;;;13.60;11.65;;;16.10;99.90;;;;;;5070375;28;20028;-76
2022/07/02 05:53:17;;;;;;;16.30;12.20;;;16.10;99.90;;;;;;5065679;28;20069;-75
2022/07/02 05:55:42;;;;;;;14.60;11.20;;;16.10;99.90;;;;;;5075249;28;20093;-75
2022/07/02 05:58:08;;;;;;;13.50;11.02;;;16.10;99.90;;;;;;5074795;28;20028;-76
2022/07/02 06:00:34;;;;;;;15.85;11.45;;;16.10;99.90;;;;;;5056203;28;20036;-76
2022/07/02 06:03:00;;;;;;;13.60;10.52;;;16.10;99.90;;;;;;5074077;28;20051;-74
2022/07/02 06:08:12;;;;;;;16.88;11.45;;;16.00;99.90;;;;;;5050021;28;20068;-74
2022/07/02 06:10:38;;;;;;;15.30;12.23;;;16.00;99.90;;;;;;5074797;28;20028;-74
2022/07/02 06:13:03;;;;;;;16.48;12.27;;;16.00;99.90;;;;;;5056682;28;20027;-74
2022/07/02 06:15:29;;;;;;;16.05;11.85;;;16.00;99.90;;;;;;5056258;28;20047;-73
2022/07/02 06:18:00;;;;;;;15.25;11.63;;;15.90;99.90;;;;;;5074563;28;20447;-74
2022/07/02 06:20:25;;;;;;;20.23;13.85;;;15.90;99.90;;;;;;5074647;28;20082;-74
2022/07/02 06:22:51;;;;;;;19.80;12.45;;;16.00;99.90;;;;;;5074361;28;20028;-74
2022/07/02 06:25:17;;;;;;;20.55;13.40;;;16.00;99.90;;;;;;5074681;28;20024;-73
2022/07/02 06:27:43;;;;;;;20.40;14.27;;;15.80;99.90;;;;;;5074464;28;20036;-74
2022/07/02 06:30:09;;;;;;;21.10;13.23;;;15.90;99.90;;;;;;5073922;28;20475;-74
2022/07/02 06:32:36;;;;;;;19.95;13.50;;;15.80;99.90;;;;;;5074045;28;20063;-74
2022/07/02 06:35:02;;;;;;;17.85;12.60;;;15.90;99.90;;;;;;5073797;28;20405;-73
2022/07/02 06:37:28;;;;;;;17.85;12.98;;;16.00;99.90;;;;;;5056298;28;20021;-74
2022/07/02 06:39:54;;;;;;;18.35;11.43;;;15.90;99.90;;;;;;5074147;28;20055;-74
2022/07/02 06:42:20;;;;;;;18.13;11.82;;;15.80;99.90;;;;;;5072568;28;20044;-75
2022/07/02 06:44:54;;;;;;;18.30;12.43;;;15.90;99.90;;;;;;5063715;28;20115;-74
2022/07/02 06:47:21;;;;;;;21.40;14.13;;;15.90;99.90;;;;;;5053935;28;20051;-74
2022/07/02 06:49:48;;;;;;;22.35;13.52;;;15.90;99.90;;;;;;5054560;28;20373;-74
2022/07/02 06:52:14;;;;;;;20.98;14.13;;;16.00;99.90;;;;;;5054887;28;20031;-74
2022/07/02 06:54:40;;;;;;;19.25;13.38;;;16.10;99.90;;;;;;5069894;28;20445;-74
2022/07/02 06:57:06;;;;;;;19.10;13.65;;;16.10;99.90;;;;;;5055076;28;20060;-74
2022/07/02 06:59:32;;;;;;;18.05;13.25;;;16.10;99.90;;;;;;5072123;28;20020;-74
2022/07/02 07:01:59;;;;;;;18.45;12.90;;;16.10;99.90;;;;;;5052573;28;20039;-74
2022/07/02 07:04:28;;;;;;;17.52;12.30;;;16.00;99.90;;;;;;5072594;28;20028;-74
2022/07/02 07:06:55;;;;;;;12.48;10.15;;;15.90;99.90;;;;;;5069958;28;20173;-73
2022/07/02 07:09:23;;;;;;;12.35;9.63;;;15.90;99.90;;;;;;5064306;28;20020;-73
2022/07/02 07:11:49;;;;;;;14.70;10.52;;;15.90;99.90;;;;;;5054575;28;20056;-72
2022/07/02 07:14:14;;;;;;;14.02;9.73;;;15.80;99.90;;;;;;5073045;28;20147;-72
2022/07/02 07:16:40;;;;;;;12.20;9.23;;;15.90;99.90;;;;;;5072251;28;20492;-73
2022/07/02 07:19:06;;;;;;;12.50;9.05;;;15.90;99.90;;;;;;5072371;28;20020;-74
2022/07/02 07:21:37;;;;;;;12.57;8.50;;;15.90;99.90;;;;;;5053951;28;20113;-73
2022/07/02 07:24:03;;;;;;;11.63;9.17;;;15.90;99.90;;;;;;5047802;28;20036;-73
2022/07/02 07:26:29;;;;;;;12.20;9.45;;;16.00;99.90;;;;;;5072467;28;20024;-72
2022/07/02 07:28:55;;;;;;;12.75;8.85;;;16.00;99.90;;;;;;5072398;28;20103;-72
2022/07/02 07:31:20;;;;;;;12.60;9.88;;;16.10;99.90;;;;;;5072693;28;20405;-73
2022/07/02 07:33:51;;;;;;;16.30;10.50;;;16.20;99.90;;;;;;5071514;28;20044;-72
2022/07/02 07:36:18;;;;;;;9.00;7.30;;;16.30;99.90;;;;;;5072701;28;20028;-73
2022/07/02 07:38:45;;;;;;;9.13;7.07;;;16.20;99.90;;;;;;5053940;28;20028;-74
2022/07/02 07:41:11;;;;;;;9.18;7.30;;;16.20;99.90;;;;;;5054848;28;20037;-73
2022/07/02 07:43:36;;;;;;;7.55;6.72;;;16.20;99.90;;;;;;5072139;28;20041;-74
2022/07/02 07:46:02;;;;;;;7.28;6.28;;;16.20;99.90;;;;;;5054132;28;20028;-73
2022/07/02 07:48:28;;;;;;;8.55;6.60;;;16.30;99.90;;;;;;5071095;28;20033;-74
2022/07/02 07:50:54;;;;;;;8.05;6.53;;;16.40;99.90;;;;;;5071699;28;20078;-73
2022/07/02 07:53:20;;;;;;;8.23;6.28;;;16.50;99.90;;;;;;5054206;28;20475;-72
2022/07/02 07:55:48;;;;;;;6.90;6.20;;;16.60;99.90;;;;;;5071829;28;20031;-71
2022/07/02 07:58:16;;;;;;;6.57;5.88;;;16.70;99.90;;;;;;5053102;28;20033;-72
2022/07/02 08:00:42;;;;;;;5.50;5.00;;;16.80;99.90;;;;;;5049381;28;20135;-72
2022/07/02 08:03:08;;;;;;;7.20;6.50;;;16.80;99.90;;;;;;5051716;28;20162;-72
2022/07/02 08:05:35;;;;;;;8.13;7.32;;;17.00;99.90;;;;;;5056653;28;20044;-72
2022/07/02 08:08:01;;;;;;;8.05;7.28;;;16.90;99.90;;;;;;5061130;28;20021;-71
2022/07/02 08:10:27;;;;;;;8.18;7.30;;;16.80;99.90;;;;;;5034944;28;20013;-72
2022/07/02 08:12:53;;;;;;;8.65;7.07;;;16.80;99.90;;;;;;5052791;28;20021;-73
2022/07/02 08:15:19;;;;;;;8.38;7.57;;;16.80;99.90;;;;;;5066940;28;20154;-71
2022/07/02 08:17:45;;;;;;;8.13;6.72;;;16.70;99.90;;;;;;5072847;28;20043;-72
2022/07/02 08:20:12;;;;;;;7.65;6.95;;;16.80;99.90;;;;;;5072439;28;20033;-71
2022/07/02 08:22:38;;;;;;;11.30;7.97;;;16.80;99.90;;;;;;5054692;28;20020;-72
2022/07/02 08:25:05;;;;;;;7.82;7.00;;;16.70;99.90;;;;;;5072696;28;20025;-72
2022/07/02 08:27:31;;;;;;;8.65;7.75;;;16.70;99.90;;;;;;5072928;28;20020;-71
2022/07/02 08:29:57;;;;;;;9.27;8.38;;;16.70;99.90;;;;;;5072630;28;20493;-71
2022/07/02 08:32:22;;;;;;;10.38;8.63;;;16.60;99.90;;;;;;5072773;28;20425;-72
2022/07/02 08:34:49;;;;;;;9.63;8.68;;;16.70;99.90;;;;;;5067410;28;20013;-71
2022/07/02 08:37:15;;;;;;;10.63;9.02;;;16.70;99.90;;;;;;5070947;28;20028;-72
2022/07/02 08:39:41;;;;;;;12.02;10.73;;;16.80;99.90;;;;;;5052513;28;20120;-72
2022/07/02 08:42:09;;;;;;;12.48;11.13;;;16.70;99.90;;;;;;5053681;28;20115;-72
2022/07/02 08:44:35;;;;;;;11.38;9.52;;;16.70;99.90;;;;;;5070589;28;20028;-72
2022/07/02 08:47:07;;;;;;;11.95;10.52;;;16.60;99.90;;;;;;5037025;28;20486;-72
2022/07/02 08:49:34;;;;;;;10.50;9.40;;;16.60;99.90;;;;;;5070128;28;20037;-72
2022/07/02 08:52:03;;;;;;;12.93;10.25;;;16.70;99.90;;;;;;5071798;28;20025;-71
2022/07/02 08:54:29;;;;;;;13.75;9.75;;;16.80;99.90;;;;;;5053217;28;20471;-72
2022/07/02 08:56:56;;;;;;;12.20;9.35;;;16.90;99.90;;;;;;5071403;28;20460;-72
2022/07/02 08:59:22;;;;;;;10.63;8.55;;;17.00;99.90;;;;;;5070662;28;20039;-72
2022/07/02 09:01:48;;;;;;;10.85;9.75;;;16.90;99.90;;;;;;5070596;28;20032;-71
2022/07/02 09:04:19;;;;;;;11.27;10.15;;;16.80;99.90;;;;;;5070891;28;20021;-72
2022/07/02 09:06:46;;;;;;;12.60;11.30;;;16.80;99.90;;;;;;5070372;28;20398;-72
2022/07/02 09:09:12;;;;;;;12.95;10.27;;;16.90;99.90;;;;;;5071466;28;20474;-72
2022/07/02 09:11:38;;;;;;;12.32;11.07;;;16.70;99.90;;;;;;5071081;28;20086;-72
2022/07/02 09:14:05;;;;;;;13.38;11.00;;;16.70;99.90;;;;;;5053573;28;20029;-72
2022/07/02 09:16:31;;;;;;;12.85;10.30;;;16.80;99.90;;;;;;5052994;28;20025;-73
2022/07/02 09:18:57;;;;;;;13.52;11.20;;;16.80;99.90;;;;;;5070519;28;20082;-72
2022/07/02 09:21:23;;;;;;;18.58;11.35;;;16.80;99.90;;;;;;5052194;28;20048;-72
2022/07/02 09:23:52;;;;;;;13.68;10.93;;;16.80;99.90;;;;;;5071309;28;20031;-72
2022/07/02 09:26:20;;;;;;;15.30;11.82;;;16.90;99.90;;;;;;5053016;28;20041;-72
2022/07/02 09:28:59;;;;;;;13.02;10.80;;;16.90;99.90;;;;;;5071232;28;20028;-72
2022/07/02 09:31:28;;;;;;;12.23;11.02;;;16.80;99.90;;;;;;5071092;28;20064;-72
2022/07/02 09:33:55;;;;;;;13.02;10.48;;;16.90;99.90;;;;;;5073510;28;20017;-72
2022/07/02 09:36:21;;;;;;;11.68;9.55;;;17.00;99.90;;;;;;5074882;28;20036;-72
2022/07/02 09:38:50;;;;;;;12.43;9.88;;;17.10;99.90;;;;;;5074565;28;20017;-72
2022/07/02 09:41:21;;;;;;;16.73;9.23;;;17.20;99.90;;;;;;5074581;28;20083;-72
2022/07/02 09:44:06;;;;;;;10.50;9.40;;;17.20;99.90;;;;;;5074637;28;20031;-72
2022/07/02 09:46:32;;;;;;;9.63;8.73;;;17.20;99.90;;;;;;5074038;28;20037;-73
2022/07/02 09:49:07;;;;;;;11.80;9.00;;;17.20;99.90;;;;;;5073773;28;20386;-74
2022/07/02 09:51:33;;;;;;;10.23;9.23;;;17.10;99.90;;;;;;5074069;28;20036;-75
2022/07/02 09:53:59;;;;;;;11.27;9.77;;;17.00;99.90;;;;;;5056793;28;20021;-73
2022/07/02 09:56:25;;;;;;;9.52;8.60;;;17.00;99.90;;;;;;5056266;28;20040;-73
2022/07/02 09:58:51;;;;;;;10.55;9.52;;;17.10;99.90;;;;;;5074409;28;20031;-72
2022/07/02 10:01:21;;;;;;;10.18;9.20;;;17.20;99.90;;;;;;5073367;28;20041;-73
2022/07/02 10:03:56;;;;;;;11.75;10.52;;;17.20;99.90;;;;;;5060917;28;20031;-72
2022/07/02 10:06:21;;;;;;;13.10;11.68;;;17.30;99.90;;;;;;5073027;28;20059;-72
2022/07/02 10:08:48;;;;;;;11.57;10.23;;;17.40;99.90;;;;;;5041917;28;20024;-72
2022/07/02 10:11:15;;;;;;;10.85;9.75;;;17.40;99.90;;;;;;5070630;28;20041;-72
2022/07/02 10:13:41;;;;;;;12.35;11.05;;;17.50;99.90;;;;;;5071006;28;20028;-73
2022/07/02 10:16:17;;;;;;;12.13;10.55;;;17.50;99.90;;;;;;5070790;28;20207;-72
2022/07/02 10:18:43;;;;;;;13.45;10.82;;;17.70;99.90;;;;;;5069904;28;20036;-72
2022/07/02 10:21:14;;;;;;;12.15;10.82;;;17.80;99.90;;;;;;5052561;28;20055;-72
2022/07/02 10:23:44;;;;;;;14.10;11.43;;;17.90;99.90;;;;;;5070741;28;20054;-72
2022/07/02 10:26:13;;;;;;;13.43;11.30;;;18.00;99.90;;;;;;5053605;28;20029;-72
2022/07/02 10:28:39;;;;;;;18.00;11.82;;;18.00;99.90;;;;;;5055523;28;20017;-72
2022/07/02 10:31:10;;;;;;;12.15;10.95;;;17.90;99.90;;;;;;5073673;28;20036;-72
2022/07/02 10:33:52;;;;;;;9.52;7.55;;;17.80;99.90;;;;;;5055189;28;20071;-72
2022/07/02 10:36:20;;;;;;;7.47;6.78;;;17.70;99.90;;;;;;5044864;28;20028;-72
2022/07/02 10:38:56;;;;;;;7.55;6.95;;;17.60;99.90;;;;;;5055460;28;20023;-72
2022/07/02 10:41:27;;;;;;;7.30;6.68;;;17.60;99.90;;;;;;5073334;28;20098;-71
2022/07/02 10:43:58;;;;;;;8.02;6.45;;;17.70;99.90;;;;;;5073476;28;20024;-72
2022/07/02 10:46:25;;;;;;;7.18;6.55;;;17.80;99.90;;;;;;5073388;28;20071;-72
2022/07/02 10:48:53;;;;;;;7.03;6.43;;;18.00;99.90;;;;;;5071504;28;20540;-72
2022/07/02 10:51:23;;;;;;;7.00;6.32;;;18.10;99.90;;;;;;5073306;28;20036;-72
2022/07/02 10:53:50;;;;;;;6.97;6.10;;;18.10;99.90;;;;;;5073175;28;20017;-74
2022/07/02 10:56:16;;;;;;;7.38;6.80;;;17.80;99.90;;;;;;5073125;28;20029;-75
2022/07/02 10:58:42;;;;;;;7.47;6.85;;;17.70;99.90;;;;;;5054985;28;20070;-75
2022/07/02 11:01:11;;;;;;;7.55;6.63;;;17.70;99.90;;;;;;5072665;28;20437;-75
2022/07/02 11:03:37;;;;;;;6.95;6.45;;;17.60;99.90;;;;;;5054537;28;20021;-75
2022/07/02 11:06:06;;;;;;;6.90;6.40;;;17.50;99.90;;;;;;5072870;28;20398;-75
2022/07/02 11:08:49;;;;;;;7.63;6.93;;;17.60;99.90;;;;;;5060468;28;20095;-75
2022/07/02 11:11:14;;;;;;;6.45;5.95;;;17.70;99.90;;;;;;5054434;28;20040;-75
2022/07/02 11:14:00;;;;;;;7.53;6.93;;;17.80;99.90;;;;;;5072795;28;20123;-74
2022/07/02 11:16:38;;;;;;;7.53;6.90;;;17.80;99.90;;;;;;5053718;28;20040;-75
2022/07/02 11:19:28;;;;;;;7.65;6.88;;;17.90;99.90;;;;;;5054203;28;20467;-75
2022/07/02 11:22:02;;;;;;;7.93;7.22;;;18.10;99.90;;;;;;5061208;28;20052;-75
2022/07/02 11:24:31;;;;;;;8.13;7.43;;;18.50;99.90;;;;;;5072718;28;20444;-72
2022/07/02 11:26:59;;;;;;;9.57;8.57;;;18.40;99.90;;;;;;5054584;28;20036;-71
2022/07/02 11:29:24;;;;;;;7.38;6.75;;;18.60;99.90;;;;;;5072626;28;20023;-72
2022/07/02 11:31:52;;;;;;;6.28;5.78;;;18.80;99.90;;;;;;5054594;28;20020;-72
2022/07/02 11:34:22;;;;;;;5.95;5.45;;;19.00;99.90;;;;;;5073471;28;20447;-72
2022/07/02 11:36:49;;;;;;;6.78;6.20;;;19.20;99.90;;;;;;5059619;28;20025;-75
2022/07/02 11:39:18;;;;;;;6.13;5.63;;;19.10;99.90;;;;;;5034271;28;20037;-73
2022/07/02 11:41:45;;;;;;;5.20;4.80;;;19.30;99.90;;;;;;5053133;28;20441;-74
2022/07/02 11:44:22;;;;;;;6.45;5.93;;;19.40;99.90;;;;;;5053369;28;20075;-73
2022/07/02 11:46:53;;;;;;;7.03;5.40;;;19.40;99.90;;;;;;5053580;28;20013;-74
2022/07/02 11:49:20;;;;;;;6.50;6.00;;;19.40;99.90;;;;;;5051819;28;20032;-73
2022/07/02 11:51:48;;;;;;;5.82;5.43;;;19.20;99.90;;;;;;5052659;28;20036;-72
2022/07/02 11:54:14;;;;;;;7.18;6.53;;;19.10;99.90;;;;;;5053523;28;20025;-72
2022/07/02 11:56:42;;;;;;;5.22;4.93;;;19.10;99.90;;;;;;5052866;28;20108;-73
2022/07/02 11:59:09;;;;;;;5.68;5.18;;;19.10;99.90;;;;;;5053013;28;20075;-72
2022/07/02 12:01:36;;;;;;;6.47;5.88;;;19.00;99.90;;;;;;5053280;28;20029;-72
2022/07/02 12:04:03;;;;;;;6.05;5.45;;;18.90;99.90;;;;;;5053163;28;20023;-73
2022/07/02 12:06:33;;;;;;;6.30;5.70;;;18.90;99.90;;;;;;5053562;28;20128;-72
2022/07/02 12:09:00;;;;;;;6.28;5.75;;;18.70;99.90;;;;;;5073073;28;20024;-72
2022/07/02 12:11:26;;;;;;;6.22;5.72;;;18.70;99.90;;;;;;5073134;28;20017;-72
2022/07/02 12:13:53;;;;;;;7.25;6.50;;;18.70;99.90;;;;;;5055206;28;20032;-74
2022/07/02 12:16:21;;;;;;;6.20;5.60;;;18.70;99.90;;;;;;5073164;28;20028;-73
2022/07/02 12:19:03;;;;;;;6.32;5.65;;;18.80;99.90;;;;;;5054997;28;20025;-72
2022/07/02 12:21:37;;;;;;;6.63;5.82;;;18.70;99.90;;;;;;5072941;28;20520;-72
2022/07/02 12:24:06;;;;;;;6.70;5.88;;;18.60;99.90;;;;;;5073199;28;20020;-74
2022/07/02 12:26:33;;;;;;;6.35;5.70;;;18.60;99.90;;;;;;5073075;28;20025;-72
2022/07/02 12:31:55;;;;;;;7.70;6.82;;;18.40;99.90;;;;;;5073225;28;20052;-72
2022/07/02 12:34:22;;;;;;;8.98;8.02;;;18.50;99.90;;;;;;5054923;28;20129;-74
2022/07/02 12:36:53;;;;;;;8.95;8.05;;;18.50;99.90;;;;;;5058702;28;20166;-72
2022/07/02 12:39:24;;;;;;;9.85;7.55;;;18.70;99.90;;;;;;5052873;28;20548;-73
2022/07/02 12:41:50;;;;;;;8.80;8.10;;;18.80;99.90;;;;;;5034936;28;20148;-74